ADDS TAF Board (Experimental) INFO

IDs: Format: Expanded Condensed

Updated at: 0926 UTC 15 Sep 2014

KSAN - San Diego Intl Arpt, CA, US

Issued at 0856 UTC 15 Sep 2014
Time0851Z15/10Z15/11Z15/12Z15/13Z15/14Z15/15Z15/16Z15/17Z15/18Z15/19Z15/20Z15/21Z15/22Z
TypeOBSPRVLPRVLPRVLPRVLPRVLPRVLPRVLPRVLPRVLPRVLPRVLPRVLPRVL
VIS8>6>6>6>6>6>6>6>6>6>6>6>6>6
CIG----------------------------
CoverCLRFEWFEWFEWFEWFEWFEWFEWFEWFEWSKCSKCSKCSKC
FltCat--VFRVFRVFRVFRVFRVFRVFRVFRVFRVFRVFRVFRVFR
WX----------------------------
WDirVRBVRBVRBVRBVRBVRBVRBVRBVRBVRB300300300300
WSpd03333333339999
WGst----------------------------
R09/27
XWndVRBVRBVRBVRBVRBVRBVRBVRBVRBVRB2222
HWndVRBVRBVRBVRBVRBVRBVRBVRBVRBVRB-9-9-9-9
Raw TAF
KSAN 150856Z 1509/1612 VRB03KT P6SM FEW008
  FM151900 30009KT P6SM SKC
  FM160200 VRB04KT P6SM FEW007


Raw METAR
KSAN 150851Z 00000KT 8SM CLR 24/21 A2978 RMK AO2 SLP082 T02390211 58002

TAF Board Legend

Hazard VFR MVFR IFR LIFR
Visibility (sm) >5 3≤X≤5 1≤X<3 <1
Ceiling (100 ft) >30 10≤X≤30 5≤X<10 <5
Wind Speed (kt) <10 10≤X<20 20≤X<30 ≥30
Wind Gust (kt) <15 15≤X<25 25≤X<35 ≥35
Weather No Wx Reported VCTS,-TS,-FZRA TS,FZRA +TS,+FZRA


Page loaded:  09:26 UTC  |   02:26 AM Pacific  |   03:26 AM Mountain  |   04:26 AM Central  |   05:26 AM Eastern

 

ADVISORIES

FORECASTS

FORECASTS

OBSERVATIONS

USER TOOLS

ABOUT US